Flight Track Log - Related Links

Times and Time Zones

All times are in EDT time to prevent confusion due to time zone crossing. See the N51EF flight status page for this flight to view local times or setup timezone preferences in your user account.

Time Position Orientation Groundspeed Altitude Reporting Facility
EDT Latitude Longitude Course Direction KTS MPH feet Rate Location/Type
Mon 06:10:39 AM 26.0750 -80.1367 83° East 174 200 700  Level Miami Center
Mon 06:11:45 AM 26.0828 -80.0653 83° East 219 252 3,700 2,707 Climbing Miami Center
Mon 06:12:52 AM 26.1439 -80.0344 24° Northeast 252 290 6,700 2,438 Climbing Miami Center
Mon 06:13:53 AM 26.1889 -80.0819 317° Northwest 251 289 8,900 2,224 Climbing Miami Center
Mon 06:15:15 AM 26.2181 -80.1847 288° West 267 307 12,000 2,282 Climbing Miami Center
Mon 06:16:15 AM 26.2347 -80.2683 283° West 267 307 14,300 2,150 Climbing Miami Center
Mon 06:17:15 AM 26.2517 -80.3569 282° West 278 320 16,300 2,000 Climbing Miami Center
Mon 06:18:15 AM 26.2683 -80.4408 283° West 298 343 18,300 2,050 Climbing Miami Center
Mon 06:19:15 AM 26.2867 -80.5411 282° West 303 349 20,400 1,900 Climbing Miami Center
Mon 06:20:15 AM 26.3439 -80.5867 324° Northwest 271 312 22,100 1,700 Climbing Miami Center
Mon 06:21:15 AM 26.4378 -80.5944 356° North 288 331 23,800 1,400 Climbing Miami Center
Mon 06:22:15 AM 26.5192 -80.6017 355° North 311 358 24,900 1,250 Climbing Miami Center
Mon 06:23:15 AM 26.6147 -80.6208 350° North 318 366 26,300 1,300 Climbing Miami Center
Mon 06:24:15 AM 26.6847 -80.6581 335° Northwest 310 357 27,500 1,150 Climbing Miami Center
Mon 06:25:15 AM 26.7686 -80.7236 325° Northwest 323 372 28,600 950 Climbing Miami Center
Mon 06:26:15 AM 26.8339 -80.7769 324° Northwest 330 380 29,400 900 Climbing Miami Center
Mon 06:27:15 AM 26.9094 -80.8378 324° Northwest 336 387 30,400 1,000 Climbing Miami Center
Mon 06:28:15 AM 26.9872 -80.8986 325° Northwest 336 387 31,400 950 Climbing Miami Center
Mon 06:29:15 AM 27.0242 -80.9931 294° West 325 374 32,300 850 Climbing Miami Center
Mon 06:30:15 AM 27.0608 -81.0994 291° West 325 374 33,100 750 Climbing Miami Center
Mon 06:31:15 AM 27.0978 -81.1964 293° West 331 381 33,800 750 Climbing Miami Center
Mon 06:32:15 AM 27.1342 -81.2958 292° West 343 395 34,600 750 Climbing Miami Center
Mon 06:33:15 AM 27.1689 -81.3881 293° West 348 400 35,300 800 Climbing Miami Center
Mon 06:34:15 AM 27.2050 -81.5039 289° West 355 409 36,200 800 Climbing Miami Center
Mon 06:35:15 AM 27.2394 -81.6033 291° West 349 402 36,900 600 Climbing Miami Center
Mon 06:36:15 AM 27.2733 -81.7075 290° West 349 402 37,400 500 Climbing Miami Center
Mon 06:37:15 AM 27.3039 -81.7975 291° West 350 403 37,900 300 Climbing Miami Center
Mon 06:38:15 AM 27.3397 -81.9019 291° West 356 410 38,000 50 Climbing Miami Center
Mon 06:39:15 AM 27.4289 -81.9831 321° Northwest 356 410 38,000  Level Miami Center
Mon 06:40:15 AM 27.5361 -82.0181 344° North 388 447 38,000  Level Miami Center
Mon 06:41:15 AM 27.6511 -82.0092 North 388 447 38,000 250 Level Miami Center
Mon 06:43:03 AM 27.8461 -81.9444 16° North 411 473 38,700 536 Climbing Jacksonville Center
Mon 06:44:03 AM 27.9464 -81.9906 338° Northwest 388 447 39,500 600 Climbing Jacksonville Center
Mon 06:45:03 AM 28.0489 -82.0294 341° North 388 447 39,900 250 Climbing Jacksonville Center
Mon 06:46:03 AM 28.1556 -82.0686 342° North 394 453 40,000 50 Climbing Jacksonville Center
Mon 06:47:03 AM 28.2644 -82.1056 343° North 404 465 40,000  Level Jacksonville Center
Mon 06:48:03 AM 28.3753 -82.1447 343° North 404 465 40,000  Level Jacksonville Center
Mon 06:49:03 AM 28.4903 -82.1839 343° North 410 472 40,000  Level Jacksonville Center
Mon 06:50:03 AM 28.6031 -82.2258 342° North 417 480 40,000  Level Jacksonville Center
Mon 06:51:03 AM 28.7161 -82.2628 344° North 423 487 40,000  Level Jacksonville Center
Mon 06:52:03 AM 28.8311 -82.3047 342° North 423 487 40,000  Level Jacksonville Center
Mon 06:53:03 AM 28.9522 -82.3467 343° North 423 487 40,000  Level Jacksonville Center
Mon 06:54:03 AM 29.0631 -82.3842 344° North 418 481 40,000  Level Jacksonville Center
Mon 06:55:03 AM 29.1739 -82.4264 342° North 418 481 40,000  Level Jacksonville Center
Mon 06:56:03 AM 29.2844 -82.4639 344° North 418 481 40,000 100 Level Jacksonville Center
Mon 06:57:03 AM 29.3975 -82.4825 352° North 418 481 40,200 400 Climbing Jacksonville Center
Mon 06:58:03 AM 29.5122 -82.4942 355° North 411 473 40,800 600 Climbing Jacksonville Center
Mon 06:59:03 AM 29.6231 -82.5128 352° North 406 467 41,400 550 Climbing Jacksonville Center
Mon 07:00:03 AM 29.7275 -82.5531 341° North 391 450 41,900 550 Climbing Jacksonville Center
Mon 07:01:03 AM 29.8278 -82.5886 343° North 386 444 42,500 500 Climbing Jacksonville Center
Mon 07:02:03 AM 29.9300 -82.6267 342° North 381 438 42,900 250 Climbing Jacksonville Center
Mon 07:03:03 AM 30.0261 -82.6694 339° North 381 438 43,000 50 Climbing Jacksonville Center
Mon 07:04:03 AM 30.1286 -82.7006 345° North 376 433 43,000  Level Jacksonville Center
Mon 07:05:03 AM 30.2331 -82.7386 343° North 383 441 43,000  Level Jacksonville Center
Mon 07:06:03 AM 30.3417 -82.7625 349° North 383 441 43,000  Level Jacksonville Center
Mon 07:07:03 AM 30.4522 -82.7769 354° North 390 449 43,000  Level Jacksonville Center
Mon 07:08:03 AM 30.5608 -82.8008 349° North 397 457 43,000  Level Jacksonville Center
Mon 07:09:03 AM 30.6694 -82.8347 345° North 397 457 43,000  Level Jacksonville Center
Mon 07:10:03 AM 30.7739 -82.8781 340° North 392 451 43,000  Level Jacksonville Center
Mon 07:11:03 AM 30.8803 -82.9167 343° North 397 457 43,000  Level Jacksonville Center
Mon 07:12:03 AM 30.9639 -82.9483 342° North 397 457 43,000  Level Jacksonville Center
Mon 07:13:03 AM 31.0828 -82.9897 343° North 397 457 43,000  Level Jacksonville Center
Mon 07:14:03 AM 31.1914 -83.0311 342° North 403 464 43,000  Level Jacksonville Center
Mon 07:15:03 AM 31.3000 -83.0725 342° North 403 464 43,000  Level Jacksonville Center
Mon 07:17:16 AM 31.5558 -83.1736 341° North 413 475 43,000  Level Atlanta Center
Mon 07:18:16 AM 31.6686 -83.2142 343° North 413 475 43,000  Level Atlanta Center
Mon 07:19:16 AM 31.7797 -83.2594 341° North 418 481 43,000  Level Atlanta Center
Mon 07:20:16 AM 31.8803 -83.3272 330° Northwest 412 474 43,000  Level Atlanta Center
Mon 07:21:16 AM 31.9869 -83.3753 339° North 412 474 43,000  Level Atlanta Center
Mon 07:22:16 AM 32.0978 -83.4186 342° North 412 474 43,000  Level Atlanta Center
Mon 07:23:16 AM 32.2108 -83.4619 342° North 417 480 43,000  Level Atlanta Center
Mon 07:24:16 AM 32.3217 -83.5081 341° North 417 480 43,000  Level Atlanta Center
Mon 07:25:16 AM 32.4322 -83.5492 343° North 422 486 43,000  Level Atlanta Center
Mon 07:26:16 AM 32.5431 -83.5953 341° North 422 486 43,000  Level Atlanta Center
Mon 07:27:16 AM 32.6561 -83.6367 343° North 422 486 43,000  Level Atlanta Center
Mon 07:28:16 AM 32.7689 -83.6806 342° North 427 491 43,000  Level Atlanta Center
Mon 07:29:16 AM 32.8775 -83.7247 341° North 427 491 43,000  Level Atlanta Center
Mon 07:30:16 AM 32.9925 -83.7689 342° North 427 491 43,000  Level Atlanta Center
Mon 07:31:16 AM 33.0928 -83.8083 342° North 427 491 43,000  Level Atlanta Center
Mon 07:32:16 AM 33.2014 -83.8528 341° North 421 484 43,000  Level Atlanta Center
Mon 07:33:16 AM 33.3119 -83.8947 342° North 421 484 43,000  Level Atlanta Center
Mon 07:34:16 AM 33.4228 -83.9392 341° North 421 484 43,000  Level Atlanta Center
Mon 07:35:16 AM 33.5311 -83.9814 342° North 421 484 43,000  Level Atlanta Center
Mon 07:36:16 AM 33.6419 -84.0239 342° North 416 479 43,000  Level Atlanta Center
Mon 07:37:16 AM 33.7503 -84.0689 341° North 410 472 43,000  Level Atlanta Center
Mon 07:38:16 AM 33.8589 -84.1114 342° North 410 472 43,000  Level Atlanta Center
Mon 07:39:16 AM 33.9653 -84.1539 342° North 403 464 43,000  Level Atlanta Center
Mon 07:40:16 AM 34.0739 -84.1967 342° North 403 464 43,000  Level Atlanta Center
Mon 07:41:16 AM 34.1803 -84.2422 340° North 409 471 43,000  Level Atlanta Center
Mon 07:42:16 AM 34.2867 -84.2853 342° North 409 471 43,000  Level Atlanta Center
Mon 07:43:16 AM 34.3931 -84.3308 341° North 409 471 43,000  Level Atlanta Center
Mon 07:44:16 AM 34.5097 -84.3767 342° North 409 471 43,000  Level Atlanta Center
Mon 07:45:16 AM 34.6181 -84.4200 342° North 409 471 43,000  Level Atlanta Center
Mon 07:46:16 AM 34.7222 -84.4633 341° North 404 465 43,000  Level Atlanta Center
Mon 07:47:16 AM 34.8286 -84.5094 340° North 404 465 43,000  Level Atlanta Center
Mon 07:48:16 AM 34.9286 -84.5506 341° North 394 453 43,000  Level Atlanta Center
Mon 07:49:16 AM 35.0347 -84.5942 341° North 394 453 43,000  Level Atlanta Center
Mon 07:50:16 AM 35.1369 -84.6381 341° North 394 453 43,000  Level Atlanta Center
Mon 07:51:16 AM 35.2431 -84.6822 341° North 394 453 43,000  Level Atlanta Center
Mon 07:52:16 AM 35.3469 -84.7264 341° North 394 453 43,000  Level Atlanta Center
Mon 07:53:16 AM 35.4511 -84.7706 341° North 388 447 43,000  Level Atlanta Center
Mon 07:54:16 AM 35.5531 -84.8122 342° North 388 447 43,000  Level Atlanta Center
Mon 07:55:16 AM 35.6550 -84.8567 340° North 388 447 43,000  Level Atlanta Center
Mon 07:57:34 AM 35.8850 -84.9511 342° North 395 455 43,000  Level Indianapolis Center
Mon 07:58:35 AM 36.0053 -85.0022 341° North 394 453 43,000  Level Indianapolis Center
Mon 07:59:36 AM 36.1089 -85.0456 341° North 393 452 43,000  Level Indianapolis Center
Mon 08:00:37 AM 36.2131 -85.0903 341° North 395 455 43,000  Level Indianapolis Center
Mon 08:01:39 AM 36.3164 -85.1347 341° North 393 452 43,000  Level Indianapolis Center
Mon 08:02:40 AM 36.4203 -85.1789 341° North 395 455 43,000  Level Indianapolis Center
Mon 08:03:42 AM 36.5133 -85.2472 329° Northwest 389 448 43,000  Level Indianapolis Center
Mon 08:04:43 AM 36.6017 -85.3244 325° Northwest 387 445 43,000  Level Indianapolis Center
Mon 08:05:44 AM 36.6911 -85.4014 325° Northwest 389 448 43,000  Level Indianapolis Center
Mon 08:06:46 AM 36.7797 -85.4800 325° Northwest 391 450 43,000  Level Indianapolis Center
Mon 08:07:47 AM 36.8822 -85.5606 328° Northwest 397 457 43,000  Level Indianapolis Center
Mon 08:08:48 AM 36.9744 -85.6369 327° Northwest 396 456 43,000  Level Indianapolis Center
Mon 08:09:50 AM 37.0681 -85.7128 327° Northwest 398 458 43,000  Level Indianapolis Center
Mon 08:10:51 AM 37.1597 -85.7906 326° Northwest 397 457 43,000  Level Indianapolis Center
Mon 08:11:52 AM 37.2525 -85.8692 326° Northwest 399 459 43,000  Level Indianapolis Center
Mon 08:12:54 AM 37.3556 -85.9686 323° Northwest 399 459 43,000  Level Indianapolis Center
Mon 08:13:56 AM 37.4478 -86.0472 326° Northwest 398 458 43,000  Level Indianapolis Center
Mon 08:14:57 AM 37.5564 -86.0831 345° North 411 473 43,000  Level Indianapolis Center
Mon 08:15:58 AM 37.6661 -86.1192 345° North 409 471 43,000  Level Indianapolis Center
Mon 08:16:59 AM 37.7756 -86.1539 346° North 405 466 43,000  Level Indianapolis Center
Mon 08:18:01 AM 37.8856 -86.1881 346° North 406 467 43,000  Level Indianapolis Center
Mon 08:19:02 AM 37.9942 -86.2236 346° North 403 464 43,000 -341 Level Indianapolis Center
Mon 08:20:04 AM 38.1050 -86.2583 346° North 410 472 42,300 -927 Descending Indianapolis Center
Mon 08:21:05 AM 38.2219 -86.2958 346° North 429 494 41,100 -1,279 Descending Indianapolis Center
Mon 08:22:06 AM 38.3603 -86.3392 346° North 428 493 39,700 -1,220 Descending Indianapolis Center
Mon 08:23:08 AM 38.4739 -86.3758 346° North 423 487 38,600 -1,122 Descending Indianapolis Center
Mon 08:24:09 AM 38.5869 -86.4131 346° North 419 482 37,400 -1,171 Descending Indianapolis Center
Mon 08:25:11 AM 38.7008 -86.4514 345° North 423 487 36,200 -1,171 Descending Indianapolis Center
Mon 08:26:12 AM 38.8153 -86.4883 346° North 424 488 35,000 -1,230 Descending Indianapolis Center
Mon 08:27:13 AM 38.9356 -86.5275 346° North 413 475 33,700 -1,220 Descending Indianapolis Center
Mon 08:28:15 AM 39.0436 -86.5628 346° North 403 464 32,500 -1,268 Descending Indianapolis Center
Mon 08:29:16 AM 39.1486 -86.5975 346° North 393 452 31,100 -1,328 Descending Indianapolis Center
Mon 08:30:17 AM 39.2514 -86.6311 346° North 382 440 29,800 -1,171 Descending Indianapolis Center
Mon 08:31:19 AM 39.3603 -86.6672 346° North 398 458 28,700 -976 Descending Indianapolis Center
Mon 08:32:20 AM 39.4597 -86.7267 335° Northwest 392 451 27,800 -976 Descending Indianapolis Center
Mon 08:33:22 AM 39.5658 -86.7853 337° Northwest 408 470 26,700 -878 Descending Indianapolis Center
Mon 08:34:23 AM 39.6692 -86.8453 336° Northwest 404 465 26,000 -344 Descending Indianapolis Center
Mon 08:35:24 AM 39.7697 -86.9047 336° Northwest 398 458 26,000  Level Indianapolis Center
Mon 08:36:26 AM 39.8725 -86.9656 336° Northwest 401 461 26,000 -488 Level Indianapolis Center
Mon 08:37:27 AM 39.9964 -87.0369 336° Northwest 405 466 25,000 -836 Descending Indianapolis Center
Mon 08:38:28 AM 40.0964 -87.0953 336° Northwest 394 453 24,300 -927 Descending Indianapolis Center
Mon 08:39:30 AM 40.1981 -87.1531 337° Northwest 396 456 23,100 -1,317 Descending Indianapolis Center
Mon 08:40:31 AM 40.2989 -87.2119 336° Northwest 398 458 21,600 -1,770 Descending Indianapolis Center
Mon 08:41:32 AM 40.3967 -87.2706 335° Northwest 390 449 19,500 -2,049 Descending Indianapolis Center
Mon 08:42:34 AM 40.4906 -87.3242 337° Northwest 375 432 17,400 -2,049 Descending Indianapolis Center
Mon 08:43:35 AM 40.5797 -87.3769 336° Northwest 357 411 15,300 -2,066 Descending Indianapolis Center
Mon 08:44:36 AM 40.6658 -87.4281 336° Northwest 346 398 13,200 -1,701 Descending Indianapolis Center
Mon 08:45:49 AM 40.7694 -87.4889 336° Northwest 331 381 11,500 -1,289 Descending Chicago Center
Mon 08:46:51 AM 40.8433 -87.5336 335° Northwest 298 343 10,300 -1,742 Descending Chicago Center
Mon 08:47:53 AM 40.9261 -87.5850 335° Northwest 277 319 7,900 -2,195 Descending Chicago Center
Mon 08:48:54 AM 40.9950 -87.6278 335° Northwest 275 316 5,800 -1,805 Descending Chicago Center
Mon 08:49:56 AM 41.0508 -87.6939 318° Northwest 277 319 4,200 -871 Descending Chicago Center
Mon 08:50:58 AM 41.1036 -87.7625 316° Northwest 273 314 4,000 -98 Descending Chicago Center
Mon 08:51:59 AM 41.1556 -87.8275 317° Northwest 265 305 4,000  Level Chicago Center
Mon 08:53:01 AM 41.2111 -87.8861 322° Northwest 260 299 4,000  Level Chicago Center
Mon 08:54:03 AM 41.2803 -87.9597 321° Northwest 263 303 4,000  Level Chicago Center
Mon 08:55:05 AM 41.3386 -88.0214 322° Northwest 266 306 4,000  Level Chicago Center
Mon 08:56:06 AM 41.3972 -88.0831 322° Northwest 264 304 4,000  Level Chicago Center
Mon 08:57:08 AM 41.4544 -88.1450 321° Northwest 259 298 4,000  Level Chicago Center
Mon 08:58:10 AM 41.5106 -88.2056 321° Northwest 259 298 4,000  Level Chicago Center
Mon 08:59:12 AM 41.5664 -88.2658 321° Northwest 258 297 4,000 -97 Level Chicago Center
Mon 09:00:14 AM 41.6211 -88.3269 320° Northwest 257 296 3,800 -488 Descending Chicago Center
Mon 09:01:15 AM 41.6711 -88.3917 316° Northwest 255 293 3,000 -683 Descending Chicago Center
Mon 09:02:17 AM 41.7192 -88.4294 330° Northwest 213 245 2,400 -290 Descending Chicago Center
Mon 09:03:19 AM 41.7297 -88.5006 281° West 179 206 2,400 -145 Level Chicago Center
Mon 09:04:21 AM 41.7447 -88.5386 298° West 149 171 2,100 -532 Descending Chicago Center
Mon 09:05:23 AM 41.7681 -88.5178 34° Northeast 112 129 1,300 -629 Descending Chicago Center
Mon 09:06:25 AM 41.7747 -88.4794 77° East 109 125 800 -484 Descending Chicago Center

Login

Don't have an account? Register now (free) for customized features, flight alerts, and more!